Stahlstown, Pennsylvania
Current Conditions -  °F | °C
As of 9:54 AM on Wednesday 22 Oct 2014 (Local Time) from KJST Reporting Station
Overcast Overcast  
Wind Chill: 36°   Ceiling: 400
Heat Index: 43°   Visibility: 10mi
Dew Point: 40°   Wind: 13mph
Humidity: 89%   Direction: 340°NNW
Pressure: 30.08"   Gusts: NA
Location:  40.15°N, 79.33°W
Report Text: KJST 221354Z AUTO 34011KT 10SM OVC004 06/04 A3008 RMK AO2 SLP196 T00610044
Loading
Personal Weather Stations






























Interactive Weather Map
Tropical Storm Tracking
New forecast layout! Learn more

10-Day Weather Forecast

Advertisements
Track Severe Weather on mobile